createdAt,value
2023-03-20T00:01:17.728Z,8.69
2023-03-20T00:03:49.599Z,9.12
2023-03-20T00:06:21.442Z,8.99
2023-03-20T00:08:54.537Z,8.94
2023-03-20T00:11:33.163Z,10.21
2023-03-20T00:14:22.682Z,10.25
2023-03-20T00:16:53.288Z,11.20
2023-03-20T00:19:26.105Z,10.83
2023-03-20T00:21:57.245Z,12.95
2023-03-20T00:24:27.771Z,12.97
2023-03-20T00:26:57.448Z,12.84
2023-03-20T00:29:32.657Z,13.67
2023-03-20T00:32:02.085Z,13.97
2023-03-20T00:34:50.177Z,14.46
2023-03-20T00:37:22.832Z,13.74
2023-03-20T00:39:52.204Z,13.31
2023-03-20T00:42:24.604Z,14.64
2023-03-20T00:45:02.880Z,14.78
2023-03-20T00:47:42.086Z,15.91
2023-03-20T00:50:22.228Z,15.34
2023-03-20T00:52:55.200Z,16.66
2023-03-20T00:55:30.884Z,15.64
2023-03-20T00:58:04.041Z,16.56
2023-03-20T01:00:41.628Z,15.69
2023-03-20T01:03:18.017Z,15.90
2023-03-20T01:05:55.317Z,16.36
2023-03-20T01:08:27.481Z,16.01
2023-03-20T01:10:59.734Z,16.51
2023-03-20T01:13:32.523Z,15.80
2023-03-20T01:16:04.804Z,15.74
2023-03-20T01:18:35.905Z,15.83
2023-03-20T01:21:10.547Z,15.94
2023-03-20T01:23:48.432Z,15.66
2023-03-20T01:26:26.100Z,15.48
2023-03-20T01:28:55.627Z,15.93
2023-03-20T01:31:27.908Z,15.12
2023-03-20T01:33:58.233Z,14.69
2023-03-20T01:36:27.969Z,14.09
2023-03-20T01:39:00.020Z,13.89
2023-03-20T01:41:30.529Z,14.21
2023-03-20T01:44:19.601Z,13.35
2023-03-20T01:46:54.375Z,13.58
2023-03-20T01:49:57.249Z,12.99
2023-03-20T01:52:26.624Z,12.71
2023-03-20T01:55:04.193Z,12.53
2023-03-20T01:57:33.868Z,12.54
2023-03-20T02:00:10.380Z,11.79
2023-03-20T02:02:44.286Z,11.82
2023-03-20T02:05:23.797Z,10.62
2023-03-20T02:08:12.954Z,10.34
2023-03-20T02:10:44.235Z,10.57
2023-03-20T02:13:14.824Z,10.45
2023-03-20T02:16:07.696Z,10.34
2023-03-20T02:18:47.517Z,9.32
2023-03-20T02:21:47.087Z,8.93
2023-03-20T02:24:58.239Z,8.92
2023-03-20T02:27:40.084Z,8.89
2023-03-20T02:30:40.290Z,8.76
2023-03-20T02:33:54.703Z,8.93
2023-03-20T02:36:51.383Z,9.39
2023-03-20T02:39:46.668Z,9.15
2023-03-20T02:42:32.507Z,8.82
2023-03-20T02:45:18.761Z,9.04
2023-03-20T02:48:03.253Z,9.88
2023-03-20T02:50:41.838Z,10.06
2023-03-20T02:53:26.321Z,9.34
2023-03-20T02:56:18.296Z,10.39
2023-03-20T02:58:54.050Z,10.69
2023-03-20T03:04:14.626Z,10.31
2023-03-20T03:06:49.215Z,10.01
2023-03-20T03:09:23.642Z,9.48
2023-03-20T03:12:02.018Z,10.09
2023-03-20T03:14:38.860Z,9.99
2023-03-20T03:17:11.500Z,10.08
2023-03-20T03:19:46.920Z,9.82
2023-03-20T03:22:18.023Z,10.30
2023-03-20T03:24:53.688Z,10.99
2023-03-20T03:27:30.390Z,10.78
2023-03-20T03:30:04.283Z,11.75
2023-03-20T03:32:37.841Z,12.94
2023-03-20T03:35:15.714Z,12.51
2023-03-20T03:37:58.671Z,12.61
2023-03-20T03:40:37.212Z,13.91
2023-03-20T03:43:17.117Z,14.09
2023-03-20T03:45:55.964Z,14.21
2023-03-20T03:48:33.703Z,15.79
2023-03-20T03:51:09.718Z,14.97
2023-03-20T03:53:55.405Z,15.34
2023-03-20T03:56:29.528Z,15.66
2023-03-20T03:59:06.065Z,16.25
2023-03-20T04:01:37.414Z,16.30
2023-03-20T04:04:22.195Z,17.22
2023-03-20T04:06:51.578Z,16.49
2023-03-20T04:09:21.039Z,16.50
2023-03-20T04:11:53.669Z,17.36
2023-03-20T04:14:29.066Z,17.10
2023-03-20T04:16:58.362Z,18.12
2023-03-20T04:19:27.955Z,18.44
2023-03-20T04:21:57.491Z,17.91
2023-03-20T04:24:33.244Z,17.21
2023-03-20T04:27:02.611Z,17.66
2023-03-20T04:29:39.274Z,18.11
2023-03-20T04:32:09.013Z,16.74
2023-03-20T04:34:43.670Z,17.94
2023-03-20T04:37:13.170Z,17.99
2023-03-20T04:39:43.200Z,18.02
2023-03-20T04:42:12.582Z,18.07
2023-03-20T04:44:54.160Z,18.90
2023-03-20T04:47:23.542Z,17.71
2023-03-20T04:49:53.283Z,19.21
2023-03-20T04:52:22.921Z,18.84
2023-03-20T04:54:58.822Z,19.89
2023-03-20T04:57:28.896Z,19.71
2023-03-20T05:00:04.864Z,20.31
2023-03-20T05:02:34.575Z,20.47
2023-03-20T05:05:04.554Z,20.55
2023-03-20T05:07:34.037Z,20.59
2023-03-20T05:10:04.075Z,21.34
2023-03-20T05:12:36.558Z,21.62
2023-03-20T05:15:10.448Z,20.98
2023-03-20T05:17:39.866Z,21.16
2023-03-20T05:20:11.248Z,21.14
2023-03-20T05:22:40.705Z,21.09
2023-03-20T05:25:24.749Z,20.95
2023-03-20T05:27:56.760Z,21.87
2023-03-20T05:30:29.267Z,21.56
2023-03-20T05:32:58.711Z,21.61
2023-03-20T05:35:29.423Z,21.78
2023-03-20T05:37:59.300Z,21.65
2023-03-20T05:40:28.805Z,22.00
2023-03-20T05:42:59.480Z,20.99
2023-03-20T05:45:41.157Z,21.82
2023-03-20T05:48:10.930Z,21.76
2023-03-20T05:50:40.387Z,22.44
2023-03-20T05:53:09.914Z,21.04
2023-03-20T05:56:13.555Z,21.60
2023-03-20T05:58:46.224Z,21.16
2023-03-20T06:01:21.718Z,21.12
2023-03-20T06:03:56.646Z,21.71
2023-03-20T06:06:27.827Z,21.41
2023-03-20T06:08:57.155Z,21.01
2023-03-20T06:11:26.906Z,21.33
2023-03-20T06:14:13.745Z,21.60
2023-03-20T06:16:48.884Z,21.40
2023-03-20T06:19:22.165Z,20.67
2023-03-20T06:21:55.258Z,20.87
2023-03-20T06:24:28.036Z,20.71
2023-03-20T06:27:05.023Z,21.25
2023-03-20T06:29:36.671Z,20.44
2023-03-20T06:32:13.433Z,20.69
2023-03-20T06:34:59.430Z,21.34
2023-03-20T06:37:51.633Z,20.45
2023-03-20T06:40:26.674Z,20.59
2023-03-20T06:42:57.150Z,20.20
2023-03-20T06:45:42.768Z,20.68
2023-03-20T06:48:16.314Z,19.92
2023-03-20T06:50:47.255Z,20.30
2023-03-20T06:53:20.306Z,20.74
2023-03-20T06:55:50.203Z,19.94
2023-03-20T06:58:20.168Z,19.97
2023-03-20T07:00:49.672Z,19.77
2023-03-20T07:03:22.156Z,20.24
2023-03-20T07:06:03.230Z,20.04
2023-03-20T07:08:37.046Z,20.25
2023-03-20T07:11:08.285Z,20.11
2023-03-20T07:13:38.324Z,19.51
2023-03-20T07:16:11.943Z,19.79
2023-03-20T07:18:44.341Z,19.55
2023-03-20T07:21:21.379Z,19.19
2023-03-20T07:23:53.982Z,19.35
2023-03-20T07:26:23.428Z,19.11
2023-03-20T07:28:53.488Z,19.41
2023-03-20T07:31:25.928Z,18.99
2023-03-20T07:34:02.213Z,19.04
2023-03-20T07:36:34.885Z,18.76
2023-03-20T07:39:12.271Z,18.36
2023-03-20T07:41:41.872Z,17.95
2023-03-20T07:44:11.720Z,18.30
2023-03-20T07:46:41.524Z,17.64
2023-03-20T07:49:21.260Z,17.58
2023-03-20T07:51:57.240Z,18.04
2023-03-20T07:54:26.828Z,17.02
2023-03-20T07:56:56.637Z,16.87
2023-03-20T07:59:26.286Z,17.04
2023-03-20T08:01:59.387Z,16.66
2023-03-20T08:04:37.463Z,17.17
2023-03-20T08:07:06.948Z,16.69
2023-03-20T08:09:39.866Z,16.77
2023-03-20T08:12:09.582Z,16.09
2023-03-20T08:14:39.963Z,16.24
2023-03-20T08:17:15.576Z,15.69
2023-03-20T08:19:49.437Z,15.16
2023-03-20T08:22:22.331Z,14.16
2023-03-20T08:24:53.112Z,14.78
2023-03-20T08:27:22.547Z,14.19
2023-03-20T08:29:54.097Z,13.71
2023-03-20T08:32:23.640Z,13.41
2023-03-20T08:35:25.841Z,13.54
2023-03-20T08:37:59.456Z,13.44
2023-03-20T08:40:29.272Z,13.46
2023-03-20T08:42:59.355Z,12.66
2023-03-20T08:45:34.122Z,13.13
2023-03-20T08:48:06.024Z,13.06
2023-03-20T08:50:41.689Z,12.54
2023-03-20T08:53:14.531Z,12.69
2023-03-20T08:55:50.901Z,12.61
2023-03-20T08:58:24.425Z,11.66
2023-03-20T09:01:03.314Z,12.22
2023-03-20T09:03:34.600Z,12.72
2023-03-20T09:06:10.135Z,12.41
2023-03-20T09:08:40.152Z,12.24
2023-03-20T09:11:09.817Z,11.89
2023-03-20T09:13:42.223Z,11.80
2023-03-20T09:16:15.102Z,12.01
2023-03-20T09:18:49.019Z,11.69
2023-03-20T09:21:21.453Z,11.64
2023-03-20T09:23:58.265Z,11.44
2023-03-20T09:26:27.900Z,11.46
2023-03-20T09:28:57.372Z,11.41
2023-03-20T09:31:27.348Z,11.01
2023-03-20T09:34:14.239Z,10.76
2023-03-20T09:36:48.590Z,10.37
2023-03-20T09:39:19.119Z,10.36
2023-03-20T09:41:57.071Z,10.29
2023-03-20T09:44:56.481Z,9.83
2023-03-20T09:47:50.056Z,9.37
2023-03-20T09:50:29.714Z,9.44
2023-03-20T09:53:11.587Z,9.31
2023-03-20T09:55:49.773Z,9.04
2023-03-20T09:58:26.182Z,8.99
2023-03-20T10:01:01.167Z,8.77
2023-03-20T10:03:43.913Z,8.65
2023-03-20T10:06:16.837Z,8.16
2023-03-20T10:08:50.445Z,8.16
2023-03-20T10:11:46.079Z,8.06
2023-03-20T10:14:29.055Z,8.05
2023-03-20T10:17:27.492Z,7.84
2023-03-20T10:20:03.816Z,8.04
2023-03-20T10:22:37.183Z,7.63
2023-03-20T10:25:25.195Z,7.72
2023-03-20T10:28:00.275Z,7.63
2023-03-20T10:30:54.038Z,7.43
2023-03-20T10:33:43.205Z,7.37
2023-03-20T10:36:30.722Z,7.56
2023-03-20T10:39:11.008Z,7.89
2023-03-20T10:41:54.779Z,7.26
2023-03-20T10:44:32.722Z,7.19
2023-03-20T10:47:07.247Z,7.31
2023-03-20T10:49:44.336Z,7.06
2023-03-20T10:52:19.583Z,7.32
2023-03-20T10:55:00.425Z,7.41
2023-03-20T10:57:38.465Z,7.50
2023-03-20T11:00:22.480Z,7.68
2023-03-20T11:02:54.936Z,7.40
2023-03-20T11:05:33.435Z,7.89
2023-03-20T11:08:09.621Z,8.12
2023-03-20T11:10:47.676Z,8.10
2023-03-20T11:13:29.769Z,8.41
2023-03-20T11:16:11.799Z,9.12
2023-03-20T11:18:44.625Z,9.59
2023-03-20T11:21:21.301Z,9.93
2023-03-20T11:24:27.055Z,9.89
2023-03-20T11:27:11.578Z,10.59
2023-03-20T11:29:53.699Z,11.59
2023-03-20T11:32:30.108Z,11.20
2023-03-20T11:35:21.374Z,11.17
2023-03-20T11:37:56.313Z,11.54
2023-03-20T11:40:36.608Z,12.83
2023-03-20T11:43:13.351Z,12.87
2023-03-20T11:46:32.805Z,13.59
2023-03-20T11:49:30.759Z,12.79
2023-03-20T11:52:12.321Z,13.66
2023-03-20T11:55:23.646Z,13.85
2023-03-20T11:58:00.219Z,13.66
2023-03-20T12:00:42.490Z,14.19
2023-03-20T12:03:42.246Z,13.86
2023-03-20T12:06:38.386Z,14.11
2023-03-20T12:09:29.514Z,14.82
2023-03-20T12:12:11.784Z,15.36
2023-03-20T12:18:32.892Z,14.94
2023-03-20T12:21:14.115Z,15.66
2023-03-20T12:23:59.694Z,15.72
2023-03-20T12:26:40.749Z,16.50
2023-03-20T12:29:22.043Z,16.14
2023-03-20T12:31:59.428Z,17.10
2023-03-20T12:34:43.294Z,18.14
2023-03-20T12:37:18.823Z,18.17
2023-03-20T12:40:00.928Z,18.21
2023-03-20T12:42:54.950Z,18.17
2023-03-20T12:45:44.951Z,18.27
2023-03-20T12:48:54.426Z,18.91
2023-03-20T12:51:41.142Z,18.57
2023-03-20T12:54:27.782Z,18.29
2023-03-20T12:57:13.575Z,18.56
2023-03-20T13:00:04.441Z,17.78
2023-03-20T13:02:51.704Z,16.77
2023-03-20T13:05:49.785Z,17.51
2023-03-20T13:08:43.938Z,17.03
2023-03-20T13:11:30.116Z,17.15
2023-03-20T13:14:17.987Z,17.78
2023-03-20T13:17:00.047Z,17.07
2023-03-20T13:19:38.380Z,16.69
2023-03-20T13:22:23.516Z,16.95
2023-03-20T13:25:13.887Z,16.88
2023-03-20T13:27:54.681Z,17.41
2023-03-20T13:30:41.340Z,16.42
2023-03-20T13:33:26.298Z,16.91
2023-03-20T13:36:06.311Z,16.26
2023-03-20T13:38:41.516Z,17.11
2023-03-20T13:41:16.378Z,17.23
2023-03-20T13:43:54.529Z,17.09
2023-03-20T13:46:34.741Z,17.19
2023-03-20T13:49:15.514Z,17.19
2023-03-20T13:51:55.190Z,16.33
2023-03-20T13:54:54.152Z,16.89
2023-03-20T13:57:42.031Z,17.16
2023-03-20T14:00:30.399Z,17.29
2023-03-20T14:03:19.511Z,17.72
2023-03-20T14:06:17.712Z,18.32
2023-03-20T14:08:56.013Z,17.53
2023-03-20T14:11:38.116Z,17.75
2023-03-20T14:14:21.338Z,18.31
2023-03-20T14:17:01.077Z,18.26
2023-03-20T14:19:33.349Z,19.59
2023-03-20T14:22:05.921Z,18.51
2023-03-20T14:24:40.757Z,18.55
2023-03-20T14:27:29.860Z,19.59
2023-03-20T14:30:37.172Z,18.21
2023-03-20T14:33:08.980Z,18.40
2023-03-20T14:36:19.335Z,17.74
2023-03-20T14:39:06.818Z,18.40
2023-03-20T14:41:49.874Z,18.53
2023-03-20T14:44:44.299Z,18.26
2023-03-20T14:47:32.001Z,18.72
2023-03-20T14:50:15.038Z,18.29
2023-03-20T14:53:00.936Z,19.00
2023-03-20T14:55:35.589Z,18.76
2023-03-20T14:58:43.836Z,18.71
2023-03-20T15:01:27.500Z,18.11
2023-03-20T15:04:08.694Z,17.59
2023-03-20T15:06:50.824Z,18.06
2023-03-20T15:09:26.426Z,18.67
2023-03-20T15:12:16.939Z,18.29
2023-03-20T15:15:24.827Z,18.19
2023-03-20T15:17:54.952Z,17.95
2023-03-20T15:20:35.410Z,17.19
2023-03-20T15:23:06.652Z,17.91
2023-03-20T15:25:45.409Z,16.98
2023-03-20T15:28:20.050Z,16.94
2023-03-20T15:30:57.961Z,16.96
2023-03-20T15:33:32.880Z,16.46
2023-03-20T15:36:11.401Z,16.72
2023-03-20T15:38:41.468Z,16.39
2023-03-20T15:41:28.150Z,16.56
2023-03-20T15:44:13.155Z,16.01
2023-03-20T15:46:42.828Z,16.49
2023-03-20T15:49:18.895Z,15.99
2023-03-20T15:51:51.767Z,15.89
2023-03-20T15:54:25.583Z,15.60
2023-03-20T15:57:00.918Z,15.88
2023-03-20T15:59:35.382Z,15.94
2023-03-20T16:02:06.031Z,16.19
2023-03-20T16:04:54.266Z,15.99
2023-03-20T16:07:28.491Z,16.35
2023-03-20T16:09:58.038Z,16.50
2023-03-20T16:12:30.511Z,16.29
2023-03-20T16:15:15.563Z,16.74
2023-03-20T16:17:46.213Z,17.61
2023-03-20T16:20:19.873Z,17.25
2023-03-20T16:22:52.821Z,18.21
2023-03-20T16:25:31.070Z,17.86
2023-03-20T16:28:08.926Z,18.58
2023-03-20T16:30:39.935Z,18.36
2023-03-20T16:33:16.785Z,18.57
2023-03-20T16:35:53.267Z,19.14
2023-03-20T16:38:28.860Z,18.95
2023-03-20T16:41:19.258Z,19.35
2023-03-20T16:44:20.404Z,18.81
2023-03-20T16:47:07.675Z,19.61
2023-03-20T16:49:58.124Z,19.24
2023-03-20T16:52:30.909Z,19.39
2023-03-20T16:55:19.498Z,20.24
2023-03-20T16:57:54.664Z,18.75
2023-03-20T17:00:46.240Z,19.51
2023-03-20T17:03:22.785Z,20.19
2023-03-20T17:05:58.304Z,19.91
2023-03-20T17:08:31.773Z,19.66
2023-03-20T17:11:11.112Z,20.10
2023-03-20T17:13:43.931Z,20.07
2023-03-20T17:16:20.923Z,20.59
2023-03-20T17:19:01.515Z,20.37
2023-03-20T17:21:32.836Z,19.61
2023-03-20T17:24:26.833Z,19.66
2023-03-20T17:26:57.808Z,20.25
2023-03-20T17:29:30.218Z,20.44
2023-03-20T17:34:40.765Z,21.17
2023-03-20T17:37:16.265Z,20.43
2023-03-20T17:39:48.693Z,20.89
2023-03-20T17:42:26.140Z,21.06
2023-03-20T17:45:08.594Z,20.74
2023-03-20T17:47:43.632Z,19.71
2023-03-20T17:50:19.685Z,21.16
2023-03-20T17:52:51.955Z,20.62
2023-03-20T17:55:27.888Z,20.55
2023-03-20T17:57:58.665Z,20.22
2023-03-20T18:00:28.622Z,20.29
2023-03-20T18:03:01.861Z,22.07
2023-03-20T18:05:39.660Z,21.94
2023-03-20T18:08:15.668Z,21.30
2023-03-20T18:10:45.969Z,20.96
2023-03-20T18:13:18.763Z,20.75
2023-03-20T18:16:12.131Z,22.02
2023-03-20T18:18:44.899Z,20.90
2023-03-20T18:21:17.054Z,21.02
2023-03-20T18:23:49.616Z,21.40
2023-03-20T18:26:22.549Z,20.95
2023-03-20T18:28:54.616Z,20.88
2023-03-20T18:31:26.755Z,21.21
2023-03-20T18:33:59.039Z,21.03
2023-03-20T18:36:28.718Z,22.13
2023-03-20T18:38:58.857Z,20.91
2023-03-20T18:41:33.223Z,20.65
2023-03-20T18:44:15.192Z,21.24
2023-03-20T18:46:45.303Z,20.91
2023-03-20T18:49:19.891Z,20.66
2023-03-20T18:51:51.078Z,20.71
2023-03-20T18:54:21.500Z,20.99
2023-03-20T18:56:56.576Z,20.50
2023-03-20T18:59:29.078Z,20.71
2023-03-20T19:02:00.936Z,20.49
2023-03-20T19:04:35.580Z,20.42
2023-03-20T19:07:04.932Z,20.03
2023-03-20T19:09:34.853Z,19.54
2023-03-20T19:12:04.730Z,19.54
2023-03-20T19:14:37.203Z,20.07
2023-03-20T19:17:07.151Z,18.91
2023-03-20T19:19:39.508Z,19.06
2023-03-20T19:22:22.477Z,20.06
2023-03-20T19:24:58.199Z,19.35
2023-03-20T19:27:28.083Z,19.21
2023-03-20T19:30:00.650Z,18.92
2023-03-20T19:32:30.009Z,19.39
2023-03-20T19:35:50.560Z,20.56
2023-03-20T19:38:07.901Z,19.93
2023-03-20T19:40:43.152Z,19.64
2023-03-20T19:43:16.500Z,19.74
2023-03-20T19:45:50.218Z,20.08
2023-03-20T19:48:22.609Z,19.26
2023-03-20T19:50:56.754Z,19.77
2023-03-20T19:53:29.662Z,20.24
2023-03-20T19:56:01.440Z,19.41
2023-03-20T19:58:33.556Z,20.25
2023-03-20T20:01:13.959Z,19.68
2023-03-20T20:03:45.544Z,19.97
2023-03-20T20:06:21.334Z,19.70
2023-03-20T20:08:51.995Z,19.32
2023-03-20T20:11:24.577Z,20.21
2023-03-20T20:14:11.936Z,19.58
2023-03-20T20:16:43.885Z,19.31
2023-03-20T20:19:13.831Z,18.93
2023-03-20T20:24:41.493Z,18.59
2023-03-20T20:27:22.944Z,18.86
2023-03-20T20:29:54.300Z,18.45
2023-03-20T20:32:27.423Z,17.51
2023-03-20T20:38:31.040Z,16.64
2023-03-20T20:40:44.442Z,16.59
2023-03-20T20:43:39.002Z,16.36
2023-03-20T20:46:04.159Z,15.81
2023-03-20T20:49:18.389Z,16.44
2023-03-20T20:51:49.145Z,16.41
2023-03-20T20:54:21.430Z,16.04
2023-03-20T20:56:50.931Z,15.85
2023-03-20T20:59:20.612Z,15.81
2023-03-20T21:01:55.352Z,15.88
2023-03-20T21:04:45.156Z,15.74
2023-03-20T21:07:15.088Z,15.79
2023-03-20T21:09:47.030Z,15.62
2023-03-20T21:12:30.734Z,15.39
2023-03-20T21:15:07.800Z,15.39
2023-03-20T21:17:47.266Z,15.07
2023-03-20T21:20:27.219Z,14.52
2023-03-20T21:22:56.772Z,14.21
2023-03-20T21:25:39.636Z,14.61
2023-03-20T21:28:10.754Z,14.38
2023-03-20T21:30:54.629Z,14.09
2023-03-20T21:33:32.812Z,14.54
2023-03-20T21:36:03.233Z,14.35
2023-03-20T21:39:14.912Z,14.11
2023-03-20T21:41:25.474Z,14.19
2023-03-20T21:43:56.136Z,14.46
2023-03-20T21:46:59.930Z,13.39
2023-03-20T21:52:48.824Z,14.12
2023-03-20T21:56:05.452Z,13.76
2023-03-20T21:58:24.061Z,14.56
2023-03-20T22:01:39.302Z,14.61
2023-03-20T22:03:52.111Z,15.31
2023-03-20T22:12:38.400Z,15.10
2023-03-20T22:15:29.160Z,16.56
2023-03-20T22:18:12.213Z,16.30
2023-03-20T22:24:05.748Z,15.46
2023-03-20T22:27:01.568Z,15.86
2023-03-20T22:38:55.544Z,15.18
2023-03-20T22:46:49.485Z,15.16
2023-03-20T22:49:21.472Z,15.29
2023-03-20T22:52:11.329Z,15.91
2023-03-20T22:54:46.679Z,15.97
2023-03-20T22:57:16.671Z,16.44
2023-03-20T22:59:46.010Z,15.10
2023-03-20T23:02:15.660Z,15.69
2023-03-20T23:04:50.055Z,15.08
2023-03-20T23:07:19.690Z,14.81
2023-03-20T23:09:49.830Z,15.07
2023-03-20T23:12:19.242Z,15.39
2023-03-20T23:14:52.138Z,15.50
2023-03-20T23:17:21.691Z,15.82
2023-03-20T23:20:08.718Z,15.35
2023-03-20T23:22:40.964Z,15.21
2023-03-20T23:25:37.759Z,14.65
2023-03-20T23:28:09.854Z,14.56
2023-03-20T23:30:47.980Z,14.43
2023-03-20T23:33:21.294Z,14.66
2023-03-20T23:36:12.520Z,15.09
2023-03-20T23:38:47.036Z,15.59
2023-03-20T23:41:17.386Z,14.59
2023-03-20T23:43:54.404Z,15.11
2023-03-20T23:46:23.819Z,15.09
2023-03-20T23:48:53.501Z,14.78
2023-03-20T23:51:25.689Z,15.19
2023-03-20T23:53:56.331Z,15.35
2023-03-20T23:56:25.871Z,15.74
2023-03-20T23:59:05.241Z,15.77
